Weather at Ted Stevens Anchorage International Airport

Public forecast

Using degrees Fahrenheit for public forecast. Weather courtesy of forecast.io.

Current aviation weather report (METAR) for Ted Stevens Anchorage International Airport

Retrieved 2022/08/14 05:53 UTC (20 minutes ago):

PANC 140553Z 00000KT 10SM FEW010 BKN065 BKN090 OVC130 13/12 A2963

Aviation forecast (TAF) for Ted Stevens Anchorage International Airport

Retrieved 2022/08/14 06:45 UTC (0 seconds ago):

TAF PANC 140543Z 1406/1512 VRB03KT P6SM FEW005 BKN060 OVC130 FM140700 15008KT P6SM FEW006 OVC050 FM141500 VRB04KT 5SM -SHRA SCT025 OVC035 FM142100 16008KT P6SM -RA SCT020 OVC030 FM150200 16010KT P6SM SCT030 OVC040